Time;durP1;ratioP1;P1;durP2;ratioP2;P2;SDS_P1;SDS_P2;PMS_P1;PMS_P2;Temp;Humidity;BMP_temperature;BMP_pressure;BME280_temperature;BME280_humidity;BME280_pressure;Samples;Min_cycle;Max_cycle;Signal;HPM_P1;HPM_P2
2024/01/04 00:02:15;;;;;;;1.63;1.07;;;9.80;99.90;;;;;;5053622;28;20225;-89
2024/01/04 00:04:40;;;;;;;2.43;1.13;;;9.70;99.90;;;;;;5052202;28;20202;-89
2024/01/04 00:07:06;;;;;;;3.73;0.70;;;10.00;99.90;;;;;;5029231;28;20194;-89
2024/01/04 00:09:31;;;;;;;1.37;0.73;;;9.10;99.90;;;;;;5029872;28;20184;-88
2024/01/04 00:11:57;;;;;;;1.83;0.90;;;10.00;99.90;;;;;;5031088;28;20586;-88
2024/01/04 00:14:23;;;;;;;1.20;0.90;;;9.40;99.90;;;;;;5030929;28;20571;-89
2024/01/04 00:16:48;;;;;;;1.33;0.77;;;9.60;99.90;;;;;;5032141;28;20248;-88
2024/01/04 00:19:14;;;;;;;1.20;0.90;;;9.10;99.90;;;;;;5050021;28;20173;-88
2024/01/04 00:21:39;;;;;;;1.83;0.70;;;9.80;99.90;;;;;;5041469;28;20234;-89
2024/01/04 00:24:06;;;;;;;2.00;0.80;;;9.90;99.90;;;;;;5032035;28;20204;-89
2024/01/04 00:26:32;;;;;;;2.03;0.80;;;9.20;99.90;;;;;;5030099;28;20479;-89
2024/01/04 00:28:57;;;;;;;2.50;1.13;;;9.50;99.90;;;;;;5032023;28;20190;-88
2024/01/04 00:31:23;;;;;;;1.27;0.80;;;9.60;99.90;;;;;;5033034;28;20271;-89
2024/01/04 00:33:49;;;;;;;1.17;0.90;;;10.00;99.90;;;;;;5036333;28;20190;-89
2024/01/04 00:36:14;;;;;;;2.50;0.80;;;9.50;99.90;;;;;;5031115;28;20184;-88
2024/01/04 00:38:40;;;;;;;4.90;0.70;;;9.20;99.90;;;;;;5028227;28;20202;-89
2024/01/04 00:41:05;;;;;;;4.83;1.47;;;9.20;99.90;;;;;;5032798;28;20212;-88
2024/01/04 00:43:31;;;;;;;1.00;0.90;;;9.30;99.90;;;;;;5036912;28;20427;-88
2024/01/04 00:45:58;;;;;;;3.23;0.97;;;9.40;99.90;;;;;;5034717;28;20199;-88
2024/01/04 00:48:24;;;;;;;2.15;0.90;;;9.30;99.90;;;;;;5041479;28;21329;-89
2024/01/04 00:50:49;;;;;;;2.00;0.70;;;9.60;99.90;;;;;;5035204;28;20209;-88
2024/01/04 00:53:15;;;;;;;0.90;0.67;;;9.40;99.90;;;;;;5047409;28;20190;-89
2024/01/04 00:55:40;;;;;;;3.30;1.00;;;8.80;99.90;;;;;;5034349;28;20206;-88
2024/01/04 00:58:06;;;;;;;3.00;1.33;;;9.00;99.90;;;;;;5014697;28;20202;-89
2024/01/04 01:00:32;;;;;;;1.67;0.67;;;9.10;99.90;;;;;;5026801;28;20179;-89
2024/01/04 01:02:58;;;;;;;4.57;1.10;;;9.60;99.90;;;;;;5030251;28;20543;-89
2024/01/04 01:05:23;;;;;;;2.05;1.10;;;9.40;99.90;;;;;;5027044;28;20199;-89
2024/01/04 01:07:49;;;;;;;1.17;0.80;;;9.10;99.90;;;;;;5031172;28;20186;-88
2024/01/04 01:10:15;;;;;;;2.70;1.53;;;9.50;99.90;;;;;;5032167;28;20182;-88
2024/01/04 01:12:40;;;;;;;3.80;1.10;;;9.10;99.90;;;;;;4997500;28;20198;-88
2024/01/04 01:15:06;;;;;;;3.07;1.37;;;9.30;99.90;;;;;;5032365;28;20365;-89
2024/01/04 01:17:32;;;;;;;4.60;0.88;;;9.00;99.90;;;;;;5018273;28;20190;-88
2024/01/04 01:19:58;;;;;;;1.65;1.00;;;8.80;99.90;;;;;;5031565;28;20190;-89
2024/01/04 01:22:24;;;;;;;2.13;0.67;;;9.10;99.90;;;;;;5028710;28;20550;-88
2024/01/04 01:24:50;;;;;;;1.40;1.00;;;9.00;99.90;;;;;;5029387;28;20930;-88
2024/01/04 01:27:15;;;;;;;1.37;0.80;;;9.40;99.90;;;;;;5030076;28;20503;-89
2024/01/04 01:29:41;;;;;;;1.17;0.80;;;9.40;99.90;;;;;;5028397;28;20941;-89
2024/01/04 01:32:06;;;;;;;5.23;1.30;;;9.00;99.90;;;;;;5031620;28;20209;-89
2024/01/04 01:34:32;;;;;;;1.47;1.37;;;8.70;99.90;;;;;;5032304;28;20206;-89
2024/01/04 01:36:58;;;;;;;4.30;1.00;;;9.10;99.90;;;;;;5031257;28;20188;-89
2024/01/04 01:39:24;;;;;;;1.97;0.70;;;9.30;99.90;;;;;;5030406;28;20233;-89
2024/01/04 01:41:51;;;;;;;2.00;1.00;;;9.20;99.90;;;;;;5026415;28;20473;-89
2024/01/04 01:44:17;;;;;;;1.48;0.60;;;8.90;99.90;;;;;;5029399;28;20195;-89
2024/01/04 01:46:43;;;;;;;2.83;1.07;;;9.20;99.90;;;;;;5032764;28;20553;-89
2024/01/04 01:49:09;;;;;;;1.98;0.88;;;8.80;99.90;;;;;;5016899;28;20183;-88
2024/01/04 01:51:36;;;;;;;2.67;0.90;;;9.20;99.90;;;;;;5047007;28;20179;-89
2024/01/04 01:54:02;;;;;;;2.35;0.80;;;10.00;99.90;;;;;;5052340;28;20205;-88
2024/01/04 01:56:29;;;;;;;4.13;1.00;;;9.40;99.90;;;;;;5042710;28;20222;-88
2024/01/04 01:58:56;;;;;;;4.82;0.88;;;8.90;99.90;;;;;;5013031;28;20205;-88
2024/01/04 02:01:21;;;;;;;0.93;0.60;;;9.30;99.90;;;;;;5031722;28;20299;-88
2024/01/04 02:03:47;;;;;;;2.07;0.80;;;8.80;99.90;;;;;;5011756;28;20277;-89
2024/01/04 02:06:13;;;;;;;2.30;0.67;;;8.70;99.90;;;;;;5028058;28;20417;-88
2024/01/04 02:08:39;;;;;;;2.10;0.60;;;9.20;99.90;;;;;;5032140;28;20480;-88
2024/01/04 02:11:05;;;;;;;1.05;0.50;;;8.60;99.90;;;;;;5030917;28;20195;-88
2024/01/04 02:13:30;;;;;;;0.90;0.50;;;8.60;99.90;;;;;;5027837;28;20245;-86
2024/01/04 02:15:56;;;;;;;1.47;0.50;;;8.80;99.90;;;;;;5027174;28;20202;-88
2024/01/04 02:18:21;;;;;;;0.60;0.50;;;8.60;99.90;;;;;;5029931;28;20191;-88
2024/01/04 02:20:47;;;;;;;1.10;0.70;;;8.60;99.90;;;;;;5045778;28;20215;-88
2024/01/04 02:23:19;;;;;;;1.00;0.50;;;8.40;99.90;;;;;;5033799;28;20260;-88
2024/01/04 02:25:45;;;;;;;0.60;0.40;;;8.60;99.90;;;;;;5031096;28;20234;-88
2024/01/04 02:28:10;;;;;;;0.87;0.50;;;8.80;99.90;;;;;;5030395;28;20206;-88
2024/01/04 02:30:36;;;;;;;1.40;0.80;;;9.00;99.90;;;;;;5028446;28;20233;-87
2024/01/04 02:33:01;;;;;;;0.50;0.40;;;8.60;99.90;;;;;;5027771;28;20181;-88
2024/01/04 02:35:27;;;;;;;0.57;0.43;;;8.50;99.90;;;;;;5027746;28;20206;-88
2024/01/04 02:37:52;;;;;;;0.60;0.40;;;8.40;99.90;;;;;;5029543;28;20190;-88
2024/01/04 02:40:18;;;;;;;1.33;0.43;;;8.60;99.90;;;;;;5030559;28;20278;-88
2024/01/04 02:42:44;;;;;;;1.13;0.40;;;8.50;99.90;;;;;;5030512;28;20232;-88
2024/01/04 02:45:10;;;;;;;0.57;0.43;;;8.80;99.90;;;;;;5030031;28;20207;-88
2024/01/04 02:47:36;;;;;;;1.90;0.68;;;8.40;99.90;;;;;;5028066;28;20260;-88
2024/01/04 02:50:02;;;;;;;1.30;0.70;;;8.50;99.90;;;;;;5025735;28;20189;-88
2024/01/04 02:52:28;;;;;;;0.60;0.50;;;8.40;99.90;;;;;;5026310;28;20667;-88
2024/01/04 02:54:54;;;;;;;1.20;0.50;;;8.40;99.90;;;;;;5030303;28;20218;-87
2024/01/04 02:57:19;;;;;;;1.73;0.60;;;8.80;99.90;;;;;;5030744;28;20206;-88
2024/01/04 02:59:45;;;;;;;1.03;0.60;;;8.70;99.90;;;;;;5026244;28;20194;-88
2024/01/04 03:02:10;;;;;;;0.80;0.40;;;8.30;99.90;;;;;;5028929;28;20206;-88
2024/01/04 03:04:40;;;;;;;1.17;0.60;;;8.20;99.90;;;;;;5031534;28;20202;-88
2024/01/04 03:07:06;;;;;;;0.60;0.50;;;7.80;99.90;;;;;;5028497;28;20179;-88
2024/01/04 03:09:31;;;;;;;1.03;0.50;;;8.20;99.90;;;;;;5029318;28;20179;-88
2024/01/04 03:11:57;;;;;;;0.67;0.40;;;8.20;99.90;;;;;;5030599;28;20437;-88
2024/01/04 03:14:22;;;;;;;0.60;0.50;;;8.40;99.90;;;;;;5028782;28;20682;-88
2024/01/04 03:16:48;;;;;;;0.60;0.40;;;8.60;99.90;;;;;;5030233;28;20194;-88
2024/01/04 03:19:13;;;;;;;0.83;0.50;;;8.80;99.90;;;;;;5029422;28;20499;-88
2024/01/04 03:21:39;;;;;;;0.80;0.40;;;8.40;99.90;;;;;;5028401;28;20248;-88
2024/01/04 03:24:05;;;;;;;0.70;0.50;;;8.30;99.90;;;;;;5030076;28;20218;-88
2024/01/04 03:26:30;;;;;;;0.80;0.50;;;8.50;99.90;;;;;;5026573;28;20193;-89
2024/01/04 03:28:56;;;;;;;0.97;0.50;;;8.30;99.90;;;;;;5029273;28;20300;-88
2024/01/04 03:31:21;;;;;;;0.60;0.50;;;8.30;99.90;;;;;;5029992;28;20244;-88
2024/01/04 03:33:49;;;;;;;0.57;0.40;;;8.50;99.90;;;;;;5030151;28;20663;-88
2024/01/04 03:36:15;;;;;;;0.80;0.40;;;8.10;99.90;;;;;;5030398;28;20183;-88
2024/01/04 03:38:40;;;;;;;0.68;0.50;;;8.60;99.90;;;;;;5029747;28;20230;-90
2024/01/04 03:41:07;;;;;;;0.60;0.40;;;8.20;99.90;;;;;;5044969;28;20205;-90
2024/01/04 03:43:33;;;;;;;0.88;0.40;;;8.60;99.90;;;;;;5039617;28;20194;-90
2024/01/04 03:45:58;;;;;;;1.17;0.60;;;8.20;99.90;;;;;;5046150;28;20260;-90
2024/01/04 03:48:24;;;;;;;0.80;0.50;;;8.60;99.90;;;;;;5029475;28;20327;-90
2024/01/04 03:50:49;;;;;;;0.97;0.53;;;8.20;99.90;;;;;;5029526;28;20215;-89
2024/01/04 03:53:15;;;;;;;0.60;0.50;;;8.20;99.90;;;;;;5036021;28;20224;-90
2024/01/04 03:55:40;;;;;;;1.57;0.60;;;8.80;99.90;;;;;;5032548;28;20206;-89
2024/01/04 03:58:06;;;;;;;0.93;0.50;;;8.10;99.90;;;;;;5030757;28;20185;-90
2024/01/04 04:00:31;;;;;;;0.77;0.50;;;8.50;99.90;;;;;;5024144;28;20541;-90
2024/01/04 04:02:58;;;;;;;3.17;0.60;;;8.60;99.90;;;;;;5028566;28;20182;-89
2024/01/04 04:05:23;;;;;;;1.45;0.40;;;8.70;99.90;;;;;;5029521;28;20375;-90
2024/01/04 04:07:49;;;;;;;0.97;0.60;;;8.50;99.90;;;;;;5028676;28;20764;-89
2024/01/04 04:10:15;;;;;;;0.70;0.60;;;8.50;99.90;;;;;;5029066;28;20225;-90
2024/01/04 04:12:40;;;;;;;0.70;0.60;;;8.30;99.90;;;;;;5029601;28;20217;-90
2024/01/04 04:15:06;;;;;;;0.77;0.50;;;8.70;99.90;;;;;;5042040;28;20253;-89
2024/01/04 04:17:32;;;;;;;0.90;0.60;;;8.50;99.90;;;;;;5052581;28;20190;-90
2024/01/04 04:19:58;;;;;;;2.17;0.80;;;8.60;99.90;;;;;;5033558;28;20198;-90
2024/01/04 04:22:23;;;;;;;1.30;0.60;;;8.80;99.90;;;;;;5030610;28;20203;-90
2024/01/04 04:24:49;;;;;;;1.33;0.53;;;9.20;99.90;;;;;;5032428;28;20609;-90
2024/01/04 04:27:14;;;;;;;3.07;0.77;;;8.70;99.90;;;;;;5036507;28;20183;-90
2024/01/04 04:29:40;;;;;;;1.00;0.60;;;8.70;99.90;;;;;;5052308;28;20207;-90
2024/01/04 04:32:06;;;;;;;1.20;0.70;;;9.20;99.90;;;;;;5053061;28;20182;-89
2024/01/04 04:34:33;;;;;;;2.28;0.70;;;9.10;99.90;;;;;;5033784;28;20212;-89
2024/01/04 04:37:00;;;;;;;1.80;0.60;;;9.40;99.90;;;;;;5028087;28;20255;-89
2024/01/04 04:39:25;;;;;;;2.35;0.60;;;8.80;99.90;;;;;;5018363;28;20202;-89
2024/01/04 04:41:51;;;;;;;0.70;0.50;;;8.90;99.90;;;;;;5021083;28;20198;-90
2024/01/04 04:44:16;;;;;;;1.10;0.83;;;9.30;99.90;;;;;;5029842;28;20206;-90
2024/01/04 04:46:41;;;;;;;0.90;0.60;;;9.20;99.90;;;;;;5026781;28;20204;-90
2024/01/04 04:49:07;;;;;;;2.60;0.60;;;9.10;99.90;;;;;;5044411;28;20187;-90
2024/01/04 04:51:33;;;;;;;1.23;0.80;;;9.20;99.90;;;;;;5054791;28;20188;-89
2024/01/04 04:53:58;;;;;;;1.27;0.80;;;9.40;99.90;;;;;;5039792;28;20214;-90
2024/01/04 04:56:24;;;;;;;2.10;0.63;;;9.20;99.90;;;;;;5053562;28;20171;-90
2024/01/04 04:58:50;;;;;;;2.33;0.73;;;9.20;99.90;;;;;;5039904;28;20245;-90
2024/01/04 05:01:15;;;;;;;1.90;0.80;;;9.20;99.90;;;;;;5028895;28;20248;-90
2024/01/04 05:03:41;;;;;;;1.20;0.80;;;9.70;99.90;;;;;;5022572;28;20855;-90
2024/01/04 05:06:08;;;;;;;1.27;0.60;;;9.40;99.90;;;;;;5029521;28;20252;-90
2024/01/04 05:08:34;;;;;;;1.52;0.80;;;9.80;99.90;;;;;;5027691;28;20183;-89
2024/01/04 05:10:59;;;;;;;4.30;1.20;;;9.50;99.90;;;;;;5027249;28;20183;-89
2024/01/04 05:13:25;;;;;;;1.23;0.73;;;9.70;99.90;;;;;;5025135;28;20210;-90
2024/01/04 05:15:53;;;;;;;1.17;0.80;;;9.30;99.90;;;;;;5026029;28;20722;-90
2024/01/04 05:18:19;;;;;;;1.80;0.70;;;9.40;99.90;;;;;;5030984;28;20593;-90
2024/01/04 05:20:44;;;;;;;2.70;0.80;;;9.00;99.90;;;;;;5050034;28;20194;-90
2024/01/04 05:23:10;;;;;;;1.13;0.90;;;9.10;99.90;;;;;;5028564;28;20183;-89
2024/01/04 05:25:35;;;;;;;4.37;0.83;;;9.10;99.90;;;;;;5027943;28;20211;-90
2024/01/04 05:28:01;;;;;;;0.70;0.63;;;9.50;99.90;;;;;;5029404;28;20194;-90
2024/01/04 05:30:26;;;;;;;1.60;0.70;;;9.10;99.90;;;;;;5024030;28;20182;-90
2024/01/04 05:32:52;;;;;;;3.97;1.30;;;9.40;99.90;;;;;;5026301;28;20700;-89
2024/01/04 05:35:17;;;;;;;2.87;0.90;;;9.30;99.90;;;;;;5027156;28;20603;-90
2024/01/04 05:37:43;;;;;;;1.00;0.73;;;9.20;99.90;;;;;;5029333;28;20190;-90
2024/01/04 05:40:09;;;;;;;3.40;1.00;;;9.20;99.90;;;;;;5029939;28;20282;-89
2024/01/04 05:42:35;;;;;;;1.52;0.85;;;9.20;99.90;;;;;;5033409;28;20206;-90
2024/01/04 05:45:01;;;;;;;1.40;0.70;;;9.00;99.90;;;;;;5016878;28;20259;-90
2024/01/04 05:47:27;;;;;;;1.33;0.60;;;9.10;99.90;;;;;;5017785;28;20442;-90
2024/01/04 05:49:52;;;;;;;4.30;0.60;;;9.20;99.90;;;;;;5031324;28;20179;-90
2024/01/04 05:52:18;;;;;;;1.67;0.80;;;9.30;99.90;;;;;;5029836;28;20171;-90
2024/01/04 05:54:43;;;;;;;1.10;0.60;;;9.20;99.90;;;;;;5030593;28;20200;-90
2024/01/04 05:57:09;;;;;;;1.70;0.60;;;9.30;99.90;;;;;;5031578;28;20191;-90
2024/01/04 05:59:34;;;;;;;0.73;0.57;;;9.00;99.90;;;;;;5029033;28;20186;-89
2024/01/04 06:02:00;;;;;;;2.00;0.80;;;9.40;99.90;;;;;;5027365;28;20793;-89
2024/01/04 06:04:27;;;;;;;1.07;0.80;;;9.70;99.90;;;;;;5033132;28;20317;-89
2024/01/04 06:06:55;;;;;;;1.20;1.10;;;9.60;99.90;;;;;;5032628;28;20190;-90
2024/01/04 06:09:21;;;;;;;0.80;0.80;;;9.60;99.90;;;;;;5032866;28;20194;-90
2024/01/04 06:11:50;;;;;;;2.03;0.90;;;9.30;99.90;;;;;;5031104;28;20599;-90
2024/01/04 06:14:16;;;;;;;1.23;1.10;;;9.20;99.90;;;;;;5026490;28;20209;-90
2024/01/04 06:16:42;;;;;;;2.03;1.00;;;9.40;99.90;;;;;;5031805;28;20589;-90
2024/01/04 06:19:07;;;;;;;0.93;0.60;;;9.50;99.90;;;;;;5029245;28;20446;-90
2024/01/04 06:21:33;;;;;;;1.83;0.90;;;9.20;99.90;;;;;;5031488;28;20226;-90
2024/01/04 06:23:59;;;;;;;1.77;0.73;;;9.30;99.90;;;;;;5028706;28;20230;-89
2024/01/04 06:26:24;;;;;;;2.73;0.70;;;9.20;99.90;;;;;;5029777;28;20181;-90
2024/01/04 06:28:50;;;;;;;3.00;1.20;;;9.40;99.90;;;;;;5029807;28;20678;-90
2024/01/04 06:31:16;;;;;;;2.90;0.90;;;9.90;99.90;;;;;;5031371;28;20199;-89
2024/01/04 06:33:41;;;;;;;1.47;0.70;;;9.30;99.90;;;;;;5032664;28;20191;-90
2024/01/04 06:36:07;;;;;;;2.00;0.80;;;9.80;99.90;;;;;;5035955;28;20191;-90
2024/01/04 06:38:35;;;;;;;2.43;0.73;;;10.00;99.90;;;;;;5034064;28;20242;-90
2024/01/04 06:41:03;;;;;;;2.30;0.70;;;9.50;99.90;;;;;;5033353;28;20462;-90
2024/01/04 06:43:30;;;;;;;1.92;1.05;;;9.60;99.90;;;;;;5045224;28;21427;-89
2024/01/04 06:45:56;;;;;;;3.35;0.75;;;9.40;99.90;;;;;;5051607;28;20200;-90
2024/01/04 06:48:22;;;;;;;1.58;0.80;;;9.70;99.90;;;;;;5045177;28;20195;-89
2024/01/04 06:50:48;;;;;;;2.75;0.90;;;9.70;99.90;;;;;;5038855;28;20236;-90
2024/01/04 06:53:16;;;;;;;1.63;0.87;;;9.50;99.90;;;;;;5021999;28;20195;-90
2024/01/04 06:55:42;;;;;;;0.90;0.75;;;9.70;99.90;;;;;;5032221;28;20242;-90
2024/01/04 06:58:09;;;;;;;3.03;0.90;;;9.40;99.90;;;;;;5032473;28;20606;-90
2024/01/04 07:00:35;;;;;;;1.45;0.80;;;9.90;99.90;;;;;;5015558;28;20186;-89
2024/01/04 07:03:01;;;;;;;1.77;0.85;;;9.20;99.90;;;;;;5033219;28;20179;-90
2024/01/04 07:05:27;;;;;;;1.93;0.80;;;9.50;99.90;;;;;;5048965;28;20202;-90
2024/01/04 07:07:52;;;;;;;2.30;0.90;;;9.50;99.90;;;;;;5053495;28;20472;-90
2024/01/04 07:10:17;;;;;;;1.90;0.80;;;9.40;99.90;;;;;;5048171;28;20210;-90
2024/01/04 07:12:43;;;;;;;1.47;0.70;;;9.20;99.90;;;;;;5035801;28;20183;-90
2024/01/04 07:15:10;;;;;;;4.10;1.03;;;9.50;99.90;;;;;;5036639;28;20211;-90
2024/01/04 07:17:36;;;;;;;2.17;0.80;;;9.30;99.90;;;;;;5039095;28;20187;-89
2024/01/04 07:20:03;;;;;;;1.90;0.70;;;9.40;99.90;;;;;;5040926;28;20186;-89
2024/01/04 07:22:29;;;;;;;3.35;0.95;;;8.70;99.90;;;;;;5042888;28;20241;-89
2024/01/04 07:24:56;;;;;;;2.30;1.00;;;9.20;99.90;;;;;;5054072;28;20262;-89
2024/01/04 07:27:21;;;;;;;3.53;1.00;;;9.20;99.90;;;;;;5054424;28;20178;-89
2024/01/04 07:29:47;;;;;;;1.87;1.00;;;9.30;99.90;;;;;;5024878;28;20199;-89
2024/01/04 07:32:16;;;;;;;3.20;0.90;;;9.00;99.90;;;;;;5048800;28;20473;-89
2024/01/04 07:34:41;;;;;;;1.83;1.00;;;9.50;99.90;;;;;;5054364;28;20302;-90
2024/01/04 07:37:07;;;;;;;1.10;0.87;;;8.80;99.90;;;;;;5049941;28;20183;-90
2024/01/04 07:39:33;;;;;;;2.07;1.10;;;9.40;99.90;;;;;;5054162;28;20213;-90
2024/01/04 07:41:58;;;;;;;2.80;0.90;;;9.30;99.90;;;;;;5052703;28;20195;-89
2024/01/04 07:44:24;;;;;;;1.13;0.80;;;9.10;99.90;;;;;;5039952;28;20225;-90
2024/01/04 07:46:50;;;;;;;1.20;0.77;;;8.90;99.90;;;;;;5035461;28;20561;-90
2024/01/04 07:49:15;;;;;;;1.43;0.70;;;8.90;99.90;;;;;;5031481;28;20194;-89
2024/01/04 07:51:42;;;;;;;1.10;0.80;;;9.00;99.90;;;;;;5031354;28;20208;-90
2024/01/04 07:54:08;;;;;;;0.70;0.57;;;8.60;99.90;;;;;;5014077;28;20212;-89
2024/01/04 07:56:33;;;;;;;2.87;1.30;;;9.10;99.90;;;;;;5030711;28;20324;-89
2024/01/04 07:58:59;;;;;;;1.27;0.93;;;8.60;99.90;;;;;;5029458;28;20258;-89
2024/01/04 08:01:24;;;;;;;2.43;0.90;;;9.70;99.90;;;;;;5033244;28;20305;-88
2024/01/04 08:03:50;;;;;;;2.00;0.90;;;8.60;99.90;;;;;;5028554;28;20182;-88
2024/01/04 08:06:17;;;;;;;1.83;0.97;;;8.70;99.90;;;;;;5034278;28;20183;-88
2024/01/04 08:08:42;;;;;;;3.13;0.80;;;8.40;99.90;;;;;;5032093;28;20186;-89
2024/01/04 08:11:08;;;;;;;3.00;2.07;;;8.50;99.90;;;;;;5047908;28;20171;-91
2024/01/04 08:13:34;;;;;;;1.83;0.88;;;8.50;99.90;;;;;;5052216;28;20226;-89
2024/01/04 08:16:01;;;;;;;1.50;0.80;;;8.60;99.90;;;;;;5036619;28;20192;-89
2024/01/04 08:18:27;;;;;;;1.67;0.70;;;8.50;99.90;;;;;;5031788;28;20213;-89
2024/01/04 08:20:52;;;;;;;1.67;0.90;;;8.50;99.90;;;;;;5030624;28;20197;-89
2024/01/04 08:23:18;;;;;;;4.37;1.53;;;9.00;99.90;;;;;;5031309;28;20226;-89
2024/01/04 08:25:44;;;;;;;2.33;1.03;;;8.60;99.90;;;;;;5033713;28;20206;-89
2024/01/04 08:28:10;;;;;;;2.40;0.90;;;8.60;99.90;;;;;;5037200;28;20178;-88
2024/01/04 08:30:37;;;;;;;3.00;1.10;;;9.00;99.90;;;;;;5030831;28;20210;-90
2024/01/04 08:33:03;;;;;;;2.80;1.10;;;8.50;99.90;;;;;;5031965;28;20232;-90
2024/01/04 08:35:28;;;;;;;2.10;0.80;;;8.60;99.90;;;;;;5028308;28;20222;-87
2024/01/04 08:37:54;;;;;;;2.40;0.97;;;8.80;99.90;;;;;;5031306;28;20182;-91
2024/01/04 08:40:20;;;;;;;2.00;0.83;;;8.60;99.90;;;;;;5045590;28;20186;-90
2024/01/04 08:42:45;;;;;;;3.90;1.30;;;8.80;99.90;;;;;;5029983;28;20471;-90
2024/01/04 08:45:11;;;;;;;2.13;1.20;;;8.50;99.90;;;;;;5035984;28;20765;-90
2024/01/04 08:47:37;;;;;;;2.23;1.20;;;9.10;99.90;;;;;;5053024;28;20196;-90
2024/01/04 08:50:03;;;;;;;2.83;1.40;;;9.10;99.90;;;;;;5043775;28;20179;-90
2024/01/04 08:52:29;;;;;;;2.05;1.13;;;8.70;99.90;;;;;;5030206;28;20182;-90
2024/01/04 08:54:55;;;;;;;2.17;0.90;;;9.10;99.90;;;;;;5030579;28;20621;-90
2024/01/04 08:57:21;;;;;;;3.00;1.00;;;9.00;99.90;;;;;;5028812;28;20444;-90
2024/01/04 08:59:46;;;;;;;1.40;0.70;;;9.10;99.90;;;;;;5040934;28;20191;-90
2024/01/04 09:02:12;;;;;;;1.67;0.90;;;9.30;99.90;;;;;;5041561;28;20451;-89
2024/01/04 09:04:37;;;;;;;1.33;0.70;;;9.50;99.90;;;;;;5036065;28;20299;-90
2024/01/04 09:07:03;;;;;;;2.10;1.27;;;9.70;99.90;;;;;;5032304;28;20267;-89
2024/01/04 09:09:29;;;;;;;1.40;0.63;;;9.60;99.90;;;;;;5029883;28;20185;-90
2024/01/04 09:11:54;;;;;;;2.17;0.70;;;9.20;99.90;;;;;;5031769;28;20282;-90
2024/01/04 09:14:20;;;;;;;1.20;1.03;;;9.70;99.90;;;;;;5034965;28;20214;-89
2024/01/04 09:16:46;;;;;;;2.60;1.00;;;9.90;99.90;;;;;;5030538;28;20188;-90
2024/01/04 09:19:16;;;;;;;2.45;0.90;;;10.20;99.90;;;;;;5036477;28;20260;-88
2024/01/04 09:21:42;;;;;;;2.42;1.15;;;10.00;99.90;;;;;;5040513;28;20200;-90
2024/01/04 09:24:08;;;;;;;1.15;0.80;;;9.80;99.90;;;;;;5048596;28;20227;-88
2024/01/04 09:26:40;;;;;;;1.88;0.80;;;10.30;99.90;;;;;;5038674;28;20188;-89
2024/01/04 09:29:06;;;;;;;1.48;0.60;;;10.20;99.90;;;;;;5035020;28;20187;-89
2024/01/04 09:31:33;;;;;;;0.90;0.60;;;10.40;99.90;;;;;;5050398;28;20192;-88
2024/01/04 09:33:59;;;;;;;1.67;0.63;;;10.00;99.90;;;;;;5055082;28;20427;-88
2024/01/04 09:36:25;;;;;;;1.10;0.70;;;11.00;99.90;;;;;;5053247;28;20293;-88
2024/01/04 09:38:51;;;;;;;2.40;1.90;;;11.90;99.90;;;;;;5051227;28;20491;-89
2024/01/04 09:41:25;;;;;;;2.92;1.30;;;13.70;98.90;;;;;;5054625;28;20228;-89
2024/01/04 09:43:55;;;;;;;3.08;1.33;;;13.70;97.20;;;;;;5055870;28;20190;-89
2024/01/04 09:46:26;;;;;;;1.17;0.80;;;14.40;94.90;;;;;;5053356;28;20233;-90
2024/01/04 09:49:02;;;;;;;1.65;0.80;;;15.30;95.10;;;;;;5036234;28;20670;-89
2024/01/04 09:51:29;;;;;;;1.67;1.00;;;14.90;94.40;;;;;;5017955;28;20198;-89
2024/01/04 09:53:55;;;;;;;1.45;1.13;;;14.30;94.60;;;;;;5034926;28;20297;-89
2024/01/04 09:56:23;;;;;;;1.10;1.00;;;13.40;94.80;;;;;;5035998;28;20279;-89
2024/01/04 09:58:49;;;;;;;1.95;0.90;;;13.60;95.50;;;;;;5030659;28;20554;-89
2024/01/04 10:01:20;;;;;;;2.35;1.20;;;13.00;96.30;;;;;;5035589;28;20216;-89
2024/01/04 10:03:48;;;;;;;2.28;0.90;;;12.70;96.40;;;;;;5031119;28;20182;-89
2024/01/04 10:06:24;;;;;;;2.38;1.00;;;12.50;97.00;;;;;;5032356;28;20182;-90
2024/01/04 10:08:55;;;;;;;2.03;0.90;;;12.00;98.40;;;;;;5038766;28;20193;-88
2024/01/04 10:11:25;;;;;;;2.00;0.82;;;12.30;98.40;;;;;;5030672;28;20213;-88
2024/01/04 10:13:51;;;;;;;2.50;1.55;;;11.40;98.60;;;;;;5034131;28;20539;-88
2024/01/04 10:16:16;;;;;;;3.37;2.00;;;11.70;99.20;;;;;;5037164;28;20298;-88
2024/01/04 10:18:44;;;;;;;2.67;1.73;;;11.50;99.60;;;;;;5034441;28;20187;-89
2024/01/04 10:21:10;;;;;;;2.25;0.90;;;11.70;99.60;;;;;;5034108;28;20633;-89
2024/01/04 10:23:36;;;;;;;2.17;1.53;;;11.50;99.90;;;;;;5030416;28;20598;-89
2024/01/04 10:26:09;;;;;;;6.07;1.30;;;11.40;99.90;;;;;;5027022;28;20193;-89
2024/01/04 10:28:39;;;;;;;2.10;0.90;;;10.90;99.90;;;;;;5031720;28;20194;-89
2024/01/04 10:31:08;;;;;;;1.80;1.30;;;11.10;99.90;;;;;;5034482;28;20227;-89
2024/01/04 10:33:35;;;;;;;1.98;1.20;;;10.10;99.90;;;;;;5020115;28;20246;-89
2024/01/04 10:36:11;;;;;;;1.67;0.90;;;10.50;99.90;;;;;;5036965;28;20180;-89
2024/01/04 10:38:37;;;;;;;1.95;1.05;;;10.50;99.90;;;;;;5018935;28;20204;-89
2024/01/04 10:41:04;;;;;;;2.40;1.48;;;10.50;99.90;;;;;;5036077;28;20997;-89
2024/01/04 10:43:36;;;;;;;1.85;1.38;;;10.30;99.90;;;;;;5019260;28;20247;-89
2024/01/04 10:46:05;;;;;;;2.25;1.00;;;10.70;99.90;;;;;;5031478;28;20222;-89
2024/01/04 10:48:32;;;;;;;2.65;1.10;;;10.50;99.90;;;;;;5035276;28;20535;-89
2024/01/04 10:51:08;;;;;;;1.73;1.40;;;10.40;99.90;;;;;;5037345;28;20180;-89
2024/01/04 10:53:38;;;;;;;1.98;0.82;;;10.40;99.90;;;;;;5034109;28;20176;-89
2024/01/04 10:56:07;;;;;;;1.90;0.90;;;10.60;99.90;;;;;;5034705;28;20239;-89
2024/01/04 10:58:37;;;;;;;8.57;4.22;;;10.70;99.90;;;;;;5018510;28;20237;-89
2024/01/04 11:01:03;;;;;;;1.80;1.20;;;10.30;99.90;;;;;;5037098;28;20239;-89
2024/01/04 11:03:33;;;;;;;2.50;1.42;;;10.20;99.90;;;;;;5033713;28;20172;-89
2024/01/04 11:06:16;;;;;;;0.85;0.70;;;10.00;99.90;;;;;;5034718;28;20196;-89
2024/01/04 11:08:42;;;;;;;2.40;1.00;;;10.20;99.90;;;;;;5046665;28;20189;-89
2024/01/04 11:11:12;;;;;;;1.80;1.10;;;10.30;99.90;;;;;;5038738;28;20261;-89
2024/01/04 11:13:37;;;;;;;1.73;0.90;;;10.30;99.90;;;;;;5054173;28;20220;-88
2024/01/04 11:16:27;;;;;;;1.73;0.83;;;10.60;99.90;;;;;;5048827;28;20275;-89
2024/01/04 11:19:18;;;;;;;3.35;2.22;;;10.70;99.90;;;;;;5036244;28;20243;-89
2024/01/04 11:22:26;;;;;;;1.52;1.10;;;10.50;99.90;;;;;;5031606;28;20214;-88
2024/01/04 11:25:24;;;;;;;1.50;0.88;;;10.50;99.90;;;;;;5031845;28;20213;-88
2024/01/04 11:27:50;;;;;;;1.52;0.70;;;10.70;99.90;;;;;;5034259;28;20222;-88
2024/01/04 11:30:16;;;;;;;2.07;0.90;;;10.70;99.90;;;;;;5030031;28;20715;-90
2024/01/04 11:32:45;;;;;;;1.90;0.82;;;11.30;99.90;;;;;;5032088;28;20580;-89
2024/01/04 11:35:11;;;;;;;3.90;1.02;;;11.50;99.90;;;;;;5015530;28;20273;-88
2024/01/04 11:37:37;;;;;;;0.90;0.70;;;11.70;99.90;;;;;;5035892;28;20241;-88
2024/01/04 11:40:07;;;;;;;2.07;1.10;;;11.80;99.90;;;;;;5055992;28;20217;-89
2024/01/04 11:42:37;;;;;;;2.75;1.15;;;12.00;99.90;;;;;;5056063;28;20210;-89
2024/01/04 11:45:06;;;;;;;4.97;2.08;;;11.80;99.90;;;;;;5047929;28;20218;-89
2024/01/04 11:47:39;;;;;;;3.78;1.58;;;11.90;99.90;;;;;;5034450;28;20193;-89
2024/01/04 11:50:31;;;;;;;1.83;1.50;;;12.10;99.90;;;;;;5043970;28;20175;-88
2024/01/04 11:53:06;;;;;;;2.35;1.30;;;12.20;99.90;;;;;;5032417;28;20673;-89
2024/01/04 11:55:35;;;;;;;2.35;1.48;;;11.80;99.90;;;;;;5047096;28;20208;-88
2024/01/04 11:58:05;;;;;;;1.40;0.90;;;11.20;99.90;;;;;;5034311;28;20182;-90
2024/01/04 12:00:36;;;;;;;3.28;1.50;;;11.30;99.90;;;;;;5034060;28;20181;-89
2024/01/04 12:03:11;;;;;;;3.17;1.90;;;11.00;99.90;;;;;;5030175;28;20201;-88
2024/01/04 12:05:37;;;;;;;1.27;0.80;;;10.70;99.90;;;;;;5033411;28;20203;-88
2024/01/04 12:08:03;;;;;;;1.83;1.00;;;10.80;99.90;;;;;;5030800;28;20195;-88
2024/01/04 12:10:28;;;;;;;2.40;0.90;;;10.40;99.90;;;;;;5033355;28;20199;-88
2024/01/04 12:12:54;;;;;;;1.87;0.90;;;10.20;99.90;;;;;;5033974;28;20451;-88
2024/01/04 12:15:20;;;;;;;2.50;1.30;;;10.60;99.90;;;;;;5031348;28;20212;-88
2024/01/04 12:17:46;;;;;;;2.35;1.00;;;9.90;99.90;;;;;;5041415;28;20189;-88
2024/01/04 12:20:12;;;;;;;4.70;1.00;;;10.80;99.90;;;;;;5052639;28;20277;-88
2024/01/04 12:22:38;;;;;;;2.95;1.88;;;11.40;99.90;;;;;;5053516;28;20471;-88
2024/01/04 12:25:06;;;;;;;2.03;1.35;;;11.50;99.90;;;;;;5032582;28;20646;-89
2024/01/04 12:27:32;;;;;;;3.08;1.35;;;10.70;99.90;;;;;;5026252;28;20181;-89
2024/01/04 12:29:58;;;;;;;2.55;0.85;;;10.50;99.90;;;;;;5031816;28;20185;-88
2024/01/04 12:32:25;;;;;;;4.83;1.10;;;10.40;99.90;;;;;;5033244;28;20188;-88
2024/01/04 12:34:53;;;;;;;2.30;1.40;;;10.40;99.90;;;;;;5033445;28;20227;-89
2024/01/04 12:37:18;;;;;;;1.88;1.00;;;11.10;99.90;;;;;;5033686;28;20185;-88
2024/01/04 12:39:44;;;;;;;4.07;1.10;;;10.70;99.90;;;;;;5030372;28;20209;-88
2024/01/04 12:42:12;;;;;;;2.90;1.77;;;10.80;99.90;;;;;;5032882;28;20683;-89
2024/01/04 12:44:37;;;;;;;3.25;1.10;;;11.50;99.90;;;;;;5029167;28;20223;-89
2024/01/04 12:47:04;;;;;;;1.70;1.10;;;10.80;99.90;;;;;;5044154;28;20176;-89
2024/01/04 12:49:30;;;;;;;3.05;1.10;;;11.00;99.90;;;;;;5053650;28;20198;-88
2024/01/04 12:51:57;;;;;;;3.03;1.00;;;10.90;99.90;;;;;;5039946;28;20189;-89
2024/01/04 12:54:22;;;;;;;4.57;1.00;;;11.00;99.90;;;;;;5032823;28;20218;-89